createdAt,value
2023-11-30T00:01:24.843Z,17.15
2023-11-30T00:03:54.885Z,19.85
2023-11-30T00:06:25.320Z,17.15
2023-11-30T00:08:58.712Z,26.38
2023-11-30T00:11:29.229Z,15.32
2023-11-30T00:14:00.593Z,19.23
2023-11-30T00:16:30.899Z,21.70
2023-11-30T00:19:00.849Z,19.27
2023-11-30T00:21:31.145Z,17.73
2023-11-30T00:24:01.147Z,20.65
2023-11-30T00:26:31.362Z,16.02
2023-11-30T00:29:02.635Z,21.83
2023-11-30T00:31:33.495Z,19.08
2023-11-30T00:34:03.425Z,20.30
2023-11-30T00:36:34.551Z,27.02
2023-11-30T00:39:04.985Z,17.90
2023-11-30T00:41:36.629Z,18.25
2023-11-30T00:44:07.966Z,16.63
2023-11-30T00:46:38.248Z,17.15
2023-11-30T00:49:08.167Z,16.23
2023-11-30T00:51:38.480Z,16.88
2023-11-30T00:54:08.414Z,18.83
2023-11-30T00:56:38.748Z,15.90
2023-11-30T00:59:10.078Z,22.83
2023-11-30T01:01:40.421Z,19.35
2023-11-30T01:04:10.839Z,18.17
2023-11-30T01:06:41.456Z,18.88
2023-11-30T01:09:11.374Z,16.52
2023-11-30T01:11:44.609Z,12.60
2023-11-30T01:14:16.187Z,23.27
2023-11-30T01:16:46.974Z,22.67
2023-11-30T01:19:17.067Z,18.30
2023-11-30T01:21:47.782Z,17.13
2023-11-30T01:24:18.377Z,21.55
2023-11-30T01:26:49.678Z,27.35
2023-11-30T01:29:21.113Z,19.05
2023-11-30T01:31:51.576Z,16.98
2023-11-30T01:34:21.866Z,20.45
2023-11-30T01:36:52.587Z,19.50
2023-11-30T01:39:23.186Z,15.93
2023-11-30T01:41:54.371Z,20.70
2023-11-30T01:44:25.822Z,26.25
2023-11-30T01:46:56.612Z,23.45
2023-11-30T01:49:26.719Z,21.23
2023-11-30T01:51:57.837Z,21.52
2023-11-30T01:54:28.379Z,19.58
2023-11-30T01:56:59.239Z,21.60
2023-11-30T01:59:31.152Z,16.65
2023-11-30T02:02:01.724Z,20.42
2023-11-30T02:04:36.054Z,20.27
2023-11-30T02:07:06.812Z,25.33
2023-11-30T02:09:36.786Z,25.00
2023-11-30T02:12:08.222Z,24.70
2023-11-30T02:14:39.699Z,16.73
2023-11-30T02:17:11.363Z,21.08
2023-11-30T02:19:44.160Z,21.77
2023-11-30T02:22:15.892Z,19.58
2023-11-30T02:24:47.062Z,27.05
2023-11-30T02:27:18.559Z,22.92
2023-11-30T02:29:48.770Z,20.23
2023-11-30T02:32:21.285Z,15.73
2023-11-30T02:34:51.460Z,22.02
2023-11-30T02:37:23.283Z,22.70
2023-11-30T02:39:53.443Z,19.25
2023-11-30T02:42:23.807Z,18.92
2023-11-30T02:44:53.802Z,15.93
2023-11-30T02:47:25.238Z,21.55
2023-11-30T02:49:55.796Z,22.85
2023-11-30T02:52:28.383Z,22.17
2023-11-30T02:54:58.665Z,18.55
2023-11-30T02:57:30.394Z,19.40
2023-11-30T03:00:00.500Z,19.73
2023-11-30T03:02:31.178Z,17.88
2023-11-30T03:05:02.367Z,20.77
2023-11-30T03:07:34.031Z,17.63
2023-11-30T03:10:04.258Z,17.42
2023-11-30T03:12:35.083Z,19.80
2023-11-30T03:15:05.946Z,22.67
2023-11-30T03:17:37.134Z,16.58
2023-11-30T03:20:09.584Z,17.88
2023-11-30T03:22:43.012Z,27.13
2023-11-30T03:25:13.510Z,21.77
2023-11-30T03:27:44.297Z,15.40
2023-11-30T03:30:14.884Z,19.63
2023-11-30T03:32:45.151Z,20.38
2023-11-30T03:35:15.248Z,20.92
2023-11-30T03:37:47.320Z,20.55
2023-11-30T03:40:18.118Z,22.25
2023-11-30T03:42:49.285Z,19.60
2023-11-30T03:45:19.188Z,16.67
2023-11-30T03:47:49.558Z,24.42
2023-11-30T03:50:19.618Z,19.25
2023-11-30T03:52:51.350Z,20.10
2023-11-30T03:55:21.643Z,26.85
2023-11-30T03:57:52.019Z,24.38
2023-11-30T04:00:22.368Z,22.05
2023-11-30T04:02:52.749Z,20.83
2023-11-30T04:05:22.791Z,20.40
2023-11-30T04:07:54.472Z,18.33
2023-11-30T04:10:24.760Z,20.60
2023-11-30T04:12:55.241Z,19.63
2023-11-30T04:15:26.003Z,18.77
2023-11-30T04:17:58.139Z,15.73
2023-11-30T04:20:28.503Z,18.75
2023-11-30T04:23:00.586Z,17.98
2023-11-30T04:25:30.581Z,17.55
2023-11-30T04:28:01.426Z,18.08
2023-11-30T04:30:31.352Z,17.45
2023-11-30T04:33:01.896Z,17.63
2023-11-30T04:35:32.255Z,21.25
2023-11-30T04:38:06.436Z,24.15
2023-11-30T04:40:36.410Z,21.08
2023-11-30T04:43:06.771Z,22.25
2023-11-30T04:45:37.038Z,22.85
2023-11-30T04:48:08.802Z,20.52
2023-11-30T04:50:38.920Z,19.75
2023-11-30T04:53:10.535Z,20.13
2023-11-30T04:55:40.559Z,20.08
2023-11-30T04:58:11.778Z,26.25
2023-11-30T05:00:42.198Z,22.42
2023-11-30T05:03:12.699Z,23.05
2023-11-30T05:05:42.892Z,23.55
2023-11-30T05:08:14.881Z,20.90
2023-11-30T05:10:44.935Z,25.48
2023-11-30T05:13:15.376Z,22.80
2023-11-30T05:15:47.414Z,21.90
2023-11-30T05:18:18.351Z,17.40
2023-11-30T05:20:48.379Z,20.92
2023-11-30T05:23:19.984Z,21.00
2023-11-30T05:25:49.991Z,23.40
2023-11-30T05:28:20.289Z,18.02
2023-11-30T05:30:50.449Z,18.10
2023-11-30T05:33:21.095Z,15.35
2023-11-30T05:35:51.589Z,19.58
2023-11-30T05:38:23.348Z,18.75
2023-11-30T05:40:53.422Z,18.27
2023-11-30T05:43:23.941Z,18.33
2023-11-30T05:45:54.382Z,22.83
2023-11-30T05:48:24.870Z,22.50
2023-11-30T05:50:54.959Z,24.00
2023-11-30T05:53:26.874Z,23.88
2023-11-30T05:55:57.015Z,16.60
2023-11-30T05:58:27.238Z,19.17
2023-11-30T06:00:59.585Z,22.23
2023-11-30T06:03:30.476Z,24.95
2023-11-30T06:06:00.840Z,38.60
2023-11-30T06:08:32.542Z,39.17
2023-11-30T06:11:02.672Z,38.22
2023-11-30T06:13:33.447Z,42.65
2023-11-30T06:16:03.512Z,38.83
2023-11-30T06:18:34.387Z,39.97
2023-11-30T06:21:10.944Z,61.25
2023-11-30T06:23:44.441Z,56.70
2023-11-30T06:26:16.428Z,56.85
2023-11-30T06:28:46.963Z,49.50
2023-11-30T06:31:17.624Z,58.20
2023-11-30T06:33:48.457Z,50.97
2023-11-30T06:36:18.745Z,45.42
2023-11-30T06:38:52.929Z,45.25
2023-11-30T06:41:25.161Z,52.55
2023-11-30T06:43:55.570Z,79.33
2023-11-30T06:46:26.287Z,61.75
2023-11-30T06:48:56.821Z,65.75
2023-11-30T06:51:26.805Z,59.38
2023-11-30T06:53:59.548Z,70.70
2023-11-30T06:56:29.680Z,63.10
2023-11-30T06:59:01.753Z,61.97
2023-11-30T07:01:32.581Z,115.43
2023-11-30T07:04:03.711Z,110.13
2023-11-30T07:06:33.918Z,61.85
2023-11-30T07:09:07.087Z,51.30
2023-11-30T07:11:37.156Z,53.50
2023-11-30T07:14:10.015Z,49.42
2023-11-30T07:16:41.425Z,52.87
2023-11-30T07:19:12.121Z,54.83
2023-11-30T07:21:42.236Z,75.00
2023-11-30T07:24:14.180Z,153.38
2023-11-30T07:26:44.482Z,110.25
2023-11-30T07:29:16.310Z,57.47
2023-11-30T07:31:46.572Z,51.05
2023-11-30T07:34:18.699Z,51.05
2023-11-30T07:36:48.873Z,44.97
2023-11-30T07:39:22.212Z,31.73
2023-11-30T07:41:52.370Z,33.50
2023-11-30T07:44:22.644Z,38.78
2023-11-30T07:46:52.580Z,34.53
2023-11-30T07:49:22.945Z,31.30
2023-11-30T07:51:53.808Z,32.78
2023-11-30T07:54:25.651Z,26.73
2023-11-30T07:56:57.331Z,27.42
2023-11-30T07:59:28.525Z,29.02
2023-11-30T08:01:59.183Z,32.63
2023-11-30T08:04:32.138Z,28.20
2023-11-30T08:07:03.269Z,37.28
2023-11-30T08:09:35.246Z,35.78
2023-11-30T08:12:06.246Z,21.33
2023-11-30T08:14:36.865Z,31.83
2023-11-30T08:17:07.309Z,27.85
2023-11-30T08:19:37.613Z,30.25
2023-11-30T08:22:12.474Z,23.50
2023-11-30T08:24:46.224Z,25.58
2023-11-30T08:27:16.364Z,27.40
2023-11-30T08:29:48.105Z,21.02
2023-11-30T08:32:18.401Z,20.13
2023-11-30T08:34:49.137Z,20.90
2023-11-30T08:37:19.723Z,27.63
2023-11-30T08:39:52.035Z,33.75
2023-11-30T08:42:22.876Z,34.53
2023-11-30T08:44:53.438Z,31.15
2023-11-30T08:47:27.442Z,32.25
2023-11-30T08:49:58.898Z,35.25
2023-11-30T08:52:29.024Z,41.50
2023-11-30T08:55:02.427Z,29.95
2023-11-30T08:57:32.447Z,32.83
2023-11-30T09:00:07.235Z,37.28
2023-11-30T09:02:40.938Z,44.17
2023-11-30T09:05:13.388Z,27.75
2023-11-30T09:07:43.718Z,30.20
2023-11-30T09:10:15.868Z,27.58
2023-11-30T09:12:46.240Z,33.03
2023-11-30T09:15:17.929Z,34.97
2023-11-30T09:17:48.995Z,31.92
2023-11-30T09:20:23.776Z,34.50
2023-11-30T09:22:54.287Z,40.60
2023-11-30T09:25:27.480Z,38.20
2023-11-30T09:27:57.406Z,38.15
2023-11-30T09:30:29.020Z,31.00
2023-11-30T09:32:59.822Z,41.03
2023-11-30T09:35:30.497Z,38.95
2023-11-30T09:38:03.124Z,35.08
2023-11-30T09:40:35.846Z,39.30
2023-11-30T09:43:10.139Z,40.55
2023-11-30T09:45:43.043Z,42.00
2023-11-30T09:48:13.646Z,39.15
2023-11-30T09:50:44.529Z,37.75
2023-11-30T09:53:14.770Z,35.47
2023-11-30T09:55:46.384Z,38.10
2023-11-30T09:58:16.710Z,39.53
2023-11-30T10:00:47.544Z,37.13
2023-11-30T10:03:17.542Z,29.60
2023-11-30T10:05:48.194Z,28.70
2023-11-30T10:08:20.652Z,27.75
2023-11-30T10:10:52.512Z,25.05
2023-11-30T10:13:22.469Z,20.75
2023-11-30T10:15:52.884Z,20.48
2023-11-30T10:18:23.384Z,22.40
2023-11-30T10:20:53.784Z,22.58
2023-11-30T10:23:24.006Z,30.15
2023-11-30T10:25:57.592Z,25.15
2023-11-30T10:28:27.696Z,28.25
2023-11-30T10:31:04.145Z,27.25
2023-11-30T10:33:38.853Z,28.45
2023-11-30T10:36:10.757Z,25.70
2023-11-30T10:38:43.410Z,27.60
2023-11-30T10:41:29.233Z,29.92
2023-11-30T10:44:00.638Z,25.98
2023-11-30T10:46:34.694Z,31.25
2023-11-30T10:49:06.809Z,25.60
2023-11-30T10:51:39.734Z,23.95
2023-11-30T10:54:17.815Z,25.43
2023-11-30T10:56:49.873Z,27.10
2023-11-30T10:59:19.884Z,30.30
2023-11-30T11:01:50.956Z,31.13
2023-11-30T11:04:22.775Z,22.92
2023-11-30T11:07:03.670Z,34.38
2023-11-30T11:09:44.281Z,36.10
2023-11-30T11:12:23.965Z,32.63
2023-11-30T11:15:13.201Z,32.10
2023-11-30T11:17:50.774Z,37.35
2023-11-30T11:20:26.013Z,27.60
2023-11-30T11:22:57.890Z,24.05
2023-11-30T11:25:27.957Z,25.90
2023-11-30T11:27:59.783Z,25.33
2023-11-30T11:30:29.754Z,28.90
2023-11-30T11:33:02.238Z,27.42
2023-11-30T11:35:32.196Z,26.83
2023-11-30T11:38:02.864Z,27.48
2023-11-30T11:40:32.847Z,28.63
2023-11-30T11:43:04.564Z,30.00
2023-11-30T11:45:35.347Z,29.67
2023-11-30T11:48:06.327Z,26.35
2023-11-30T11:50:36.472Z,33.35
2023-11-30T11:53:07.632Z,33.78
2023-11-30T11:55:39.754Z,29.33
2023-11-30T11:58:14.674Z,32.28
2023-11-30T12:00:55.957Z,30.15
2023-11-30T12:03:29.309Z,29.63
2023-11-30T12:06:00.484Z,28.98
2023-11-30T12:08:31.825Z,24.80
2023-11-30T12:11:01.942Z,24.83
2023-11-30T12:13:38.870Z,25.35
2023-11-30T12:16:12.962Z,30.58
2023-11-30T12:18:44.133Z,29.33
2023-11-30T12:21:14.630Z,29.20
2023-11-30T12:23:45.251Z,28.23
2023-11-30T12:26:15.442Z,26.20
2023-11-30T12:28:47.279Z,35.97
2023-11-30T12:31:17.428Z,29.52
2023-11-30T12:33:49.478Z,29.73
2023-11-30T12:36:22.315Z,37.88
2023-11-30T12:38:53.873Z,24.67
2023-11-30T12:41:24.090Z,28.15
2023-11-30T12:43:55.931Z,25.75
2023-11-30T12:46:26.030Z,26.65
2023-11-30T12:48:56.988Z,23.08
2023-11-30T12:51:29.416Z,26.27
2023-11-30T12:53:59.748Z,20.60
2023-11-30T12:56:31.490Z,27.58
2023-11-30T12:59:03.263Z,28.52
2023-11-30T13:01:33.237Z,24.48
2023-11-30T13:04:04.096Z,23.15
2023-11-30T13:06:34.964Z,26.67
2023-11-30T13:09:05.815Z,29.17
2023-11-30T13:11:35.781Z,26.95
2023-11-30T13:14:08.571Z,24.35
2023-11-30T13:16:38.755Z,26.00
2023-11-30T13:19:10.589Z,25.17
2023-11-30T13:21:41.965Z,35.57
2023-11-30T13:24:12.318Z,30.40
2023-11-30T13:26:42.803Z,27.67
2023-11-30T13:29:14.783Z,28.40
2023-11-30T13:31:45.445Z,32.55
2023-11-30T13:34:16.032Z,33.38
2023-11-30T13:36:47.086Z,32.03
2023-11-30T13:39:17.536Z,41.63
2023-11-30T13:41:47.586Z,23.52
2023-11-30T13:44:19.355Z,27.55
2023-11-30T13:46:50.805Z,31.15
2023-11-30T13:49:21.740Z,27.85
2023-11-30T13:51:51.796Z,23.67
2023-11-30T13:54:22.099Z,24.00
2023-11-30T13:56:52.460Z,20.65
2023-11-30T13:59:24.443Z,31.35
2023-11-30T14:01:55.374Z,28.63
2023-11-30T14:04:25.892Z,27.98
2023-11-30T14:06:58.176Z,32.17
2023-11-30T14:09:28.905Z,36.90
2023-11-30T14:11:59.149Z,36.22
2023-11-30T14:14:31.261Z,34.83
2023-11-30T14:17:05.008Z,43.30
2023-11-30T14:19:35.912Z,54.95
2023-11-30T14:22:08.976Z,60.28
2023-11-30T14:24:39.583Z,62.78
2023-11-30T14:27:10.460Z,48.67
2023-11-30T14:29:42.376Z,55.95
2023-11-30T14:32:12.520Z,53.67
2023-11-30T14:34:42.898Z,67.13
2023-11-30T14:37:15.999Z,63.30
2023-11-30T14:39:47.344Z,73.18
2023-11-30T14:42:17.731Z,114.88
2023-11-30T14:44:49.947Z,82.13
2023-11-30T14:47:21.424Z,75.60
2023-11-30T14:49:52.706Z,78.38
2023-11-30T14:52:23.768Z,67.95
2023-11-30T14:54:54.671Z,91.63
2023-11-30T14:57:26.215Z,60.20
2023-11-30T15:00:21.925Z,45.30
2023-11-30T15:02:53.601Z,62.75
2023-11-30T15:05:23.944Z,46.42
2023-11-30T15:07:55.240Z,55.42
2023-11-30T15:10:26.286Z,43.78
2023-11-30T15:12:57.443Z,46.83
2023-11-30T15:15:30.161Z,50.75
2023-11-30T15:18:03.015Z,40.65
2023-11-30T15:20:36.770Z,49.50
2023-11-30T15:23:06.816Z,53.80
2023-11-30T15:25:37.261Z,45.90
2023-11-30T15:28:11.190Z,47.70
2023-11-30T15:30:45.176Z,61.20
2023-11-30T15:33:15.359Z,63.28
2023-11-30T15:35:45.776Z,56.38
2023-11-30T15:38:15.940Z,50.05
2023-11-30T15:40:46.257Z,48.92
2023-11-30T15:43:17.163Z,58.80
2023-11-30T15:45:49.782Z,58.60
2023-11-30T15:48:21.245Z,56.40
2023-11-30T15:50:52.021Z,80.00
2023-11-30T15:53:22.132Z,66.28
2023-11-30T15:55:53.592Z,68.03
2023-11-30T15:58:23.771Z,57.63
2023-11-30T16:00:55.770Z,58.30
2023-11-30T16:03:26.177Z,52.97
2023-11-30T16:05:57.183Z,52.30
2023-11-30T16:08:27.582Z,58.33
2023-11-30T16:10:59.199Z,76.70
2023-11-30T16:13:29.882Z,117.57
2023-11-30T16:16:02.201Z,103.43
2023-11-30T16:18:34.907Z,71.53
2023-11-30T16:21:06.474Z,60.10
2023-11-30T16:23:36.690Z,91.60
2023-11-30T16:26:08.495Z,85.43
2023-11-30T16:28:39.321Z,86.20
2023-11-30T16:31:19.888Z,71.07
2023-11-30T16:33:53.102Z,61.83
2023-11-30T16:36:25.677Z,62.00
2023-11-30T16:38:56.490Z,53.00
2023-11-30T16:41:28.915Z,55.63
2023-11-30T16:44:00.934Z,51.97
2023-11-30T16:46:34.025Z,61.00
2023-11-30T16:49:06.214Z,58.60
2023-11-30T16:51:48.583Z,63.88
2023-11-30T16:54:20.840Z,53.55
2023-11-30T16:56:52.860Z,56.08
2023-11-30T16:59:29.858Z,50.30
2023-11-30T17:02:01.990Z,52.65
2023-11-30T17:04:32.874Z,57.50
2023-11-30T17:07:03.638Z,51.40
2023-11-30T17:09:35.235Z,61.67
2023-11-30T17:12:10.971Z,50.58
2023-11-30T17:14:44.115Z,55.30
2023-11-30T17:17:18.046Z,47.42
2023-11-30T17:19:48.444Z,57.65
2023-11-30T17:22:20.524Z,43.83
2023-11-30T17:24:54.752Z,40.83
2023-11-30T17:27:26.511Z,49.08
2023-11-30T17:29:56.822Z,52.13
2023-11-30T17:32:29.217Z,56.50
2023-11-30T17:34:59.889Z,51.25
2023-11-30T17:37:31.158Z,47.97
2023-11-30T17:40:02.240Z,61.88
2023-11-30T17:42:32.882Z,50.05
2023-11-30T17:45:06.695Z,56.30
2023-11-30T17:50:15.916Z,45.15
2023-11-30T17:52:51.066Z,54.50
2023-11-30T17:55:22.038Z,56.70
2023-11-30T17:57:53.829Z,48.97
2023-11-30T18:00:28.476Z,56.38
2023-11-30T18:03:02.434Z,62.75
2023-11-30T18:05:33.205Z,62.50
2023-11-30T18:08:04.361Z,72.72
2023-11-30T18:10:36.311Z,68.65
2023-11-30T18:13:08.670Z,71.70
2023-11-30T18:15:41.150Z,63.65
2023-11-30T18:18:14.476Z,74.28
2023-11-30T18:20:45.150Z,69.90
2023-11-30T18:23:16.074Z,69.88
2023-11-30T18:25:47.335Z,63.83
2023-11-30T18:28:19.998Z,74.75
2023-11-30T18:30:52.239Z,72.68
2023-11-30T18:33:25.338Z,64.88
2023-11-30T18:35:55.900Z,62.40
2023-11-30T18:38:29.840Z,54.17
2023-11-30T18:41:02.325Z,53.88
2023-11-30T18:43:33.109Z,58.03
2023-11-30T18:46:03.773Z,66.57
2023-11-30T18:48:38.741Z,59.17
2023-11-30T18:51:10.214Z,61.45
2023-11-30T18:53:40.865Z,63.70
2023-11-30T18:56:11.777Z,56.78
2023-11-30T18:58:42.812Z,56.85
2023-11-30T19:01:13.006Z,56.13
2023-11-30T19:03:45.168Z,71.57
2023-11-30T19:06:18.362Z,52.05
2023-11-30T19:08:50.500Z,60.97
2023-11-30T19:11:22.879Z,64.45
2023-11-30T19:13:54.295Z,65.68
2023-11-30T19:16:24.656Z,53.28
2023-11-30T19:18:56.769Z,70.60
2023-11-30T19:21:29.012Z,59.15
2023-11-30T19:24:01.374Z,59.42
2023-11-30T19:26:31.490Z,63.67
2023-11-30T19:29:02.106Z,79.20
2023-11-30T19:31:32.516Z,70.55
2023-11-30T19:34:06.079Z,63.22
2023-11-30T19:36:36.493Z,70.47
2023-11-30T19:39:08.096Z,71.63
2023-11-30T19:41:38.168Z,87.35
2023-11-30T19:44:09.797Z,77.82
2023-11-30T19:46:40.314Z,84.60
2023-11-30T19:49:13.605Z,76.72
2023-11-30T19:51:43.834Z,77.00
2023-11-30T19:54:14.691Z,84.28
2023-11-30T19:56:45.147Z,83.55
2023-11-30T19:59:17.947Z,79.68
2023-11-30T20:01:49.214Z,98.65
2023-11-30T20:04:22.018Z,99.93
2023-11-30T20:06:53.081Z,79.97
2023-11-30T20:09:25.224Z,87.70
2023-11-30T20:11:55.786Z,73.07
2023-11-30T20:14:28.897Z,84.57
2023-11-30T20:16:59.382Z,77.65
2023-11-30T20:19:31.194Z,65.25
2023-11-30T20:22:01.408Z,52.03
2023-11-30T20:24:35.951Z,64.45
2023-11-30T20:27:15.169Z,61.13
2023-11-30T20:29:45.899Z,59.47
2023-11-30T20:32:16.300Z,63.03
2023-11-30T20:34:48.544Z,62.95
2023-11-30T20:37:18.978Z,78.88
2023-11-30T20:39:49.589Z,66.75
2023-11-30T20:42:24.294Z,84.10
2023-11-30T20:44:56.250Z,80.03
2023-11-30T20:47:28.185Z,77.93
2023-11-30T20:50:02.286Z,69.15
2023-11-30T20:52:33.681Z,74.07
2023-11-30T20:55:05.437Z,53.60
2023-11-30T20:57:39.570Z,46.85
2023-11-30T21:00:12.209Z,65.67
2023-11-30T21:02:43.913Z,63.50
2023-11-30T21:05:17.027Z,68.78
2023-11-30T21:07:47.643Z,64.55
2023-11-30T21:10:18.229Z,54.20
2023-11-30T21:12:48.615Z,65.70
2023-11-30T21:15:20.001Z,61.10
2023-11-30T21:17:50.121Z,71.43
2023-11-30T21:20:22.167Z,69.53
2023-11-30T21:22:53.804Z,64.32
2023-11-30T21:25:24.450Z,68.95
2023-11-30T21:27:54.435Z,79.30
2023-11-30T21:30:27.925Z,72.10
2023-11-30T21:32:58.609Z,62.33
2023-11-30T21:35:32.036Z,75.90
2023-11-30T21:38:02.454Z,72.00
2023-11-30T21:40:35.176Z,74.50
2023-11-30T21:43:07.816Z,66.28
2023-11-30T21:45:40.624Z,56.15
2023-11-30T21:48:12.432Z,70.15
2023-11-30T21:50:47.209Z,69.35
2023-11-30T21:53:21.119Z,68.63
2023-11-30T21:55:52.882Z,72.47
2023-11-30T21:58:26.958Z,69.30
2023-11-30T22:00:57.687Z,61.97
2023-11-30T22:03:28.664Z,70.18
2023-11-30T22:06:01.417Z,71.18
2023-11-30T22:08:31.883Z,76.28
2023-11-30T22:11:03.329Z,69.10
2023-11-30T22:13:33.389Z,80.32
2023-11-30T22:16:11.794Z,112.63
2023-11-30T22:18:44.803Z,125.32
2023-11-30T22:21:16.788Z,139.77
2023-11-30T22:23:51.363Z,124.45
2023-11-30T22:26:26.353Z,103.70
2023-11-30T22:28:57.492Z,128.70
2023-11-30T22:31:28.945Z,118.10
2023-11-30T22:34:00.458Z,117.88
2023-11-30T22:36:33.420Z,98.18
2023-11-30T22:39:03.919Z,124.70
2023-11-30T22:41:37.304Z,134.55
2023-11-30T22:44:10.229Z,147.68
2023-11-30T22:46:40.798Z,133.27
2023-11-30T22:49:12.187Z,165.80
2023-11-30T22:51:46.229Z,139.85
2023-11-30T22:56:47.235Z,113.30
2023-11-30T22:59:19.599Z,131.95
2023-11-30T23:01:50.691Z,123.00
2023-11-30T23:04:21.779Z,129.23
2023-11-30T23:06:53.744Z,109.80
2023-11-30T23:09:24.169Z,113.40
2023-11-30T23:11:54.965Z,110.60
2023-11-30T23:14:25.392Z,110.60
2023-11-30T23:16:56.498Z,96.45
2023-11-30T23:19:33.324Z,93.18
2023-11-30T23:22:05.435Z,99.45
2023-11-30T23:24:36.338Z,112.45
2023-11-30T23:27:07.345Z,108.47
2023-11-30T23:29:40.532Z,106.50
2023-11-30T23:32:11.110Z,99.60
2023-11-30T23:34:43.376Z,110.07
2023-11-30T23:37:15.160Z,118.82
2023-11-30T23:39:45.393Z,134.50
2023-11-30T23:42:17.188Z,139.95
2023-11-30T23:44:47.607Z,140.80
2023-11-30T23:47:17.924Z,135.15
2023-11-30T23:49:47.760Z,130.65
2023-11-30T23:52:19.508Z,111.22
2023-11-30T23:54:49.461Z,126.65
2023-11-30T23:57:20.597Z,117.70
2023-11-30T23:59:50.609Z,107.75
